< < Back
Terminal Aerodrome Forecast


Current Version              Previous Versions:   1  2  3  4  5  6  7  8  9  

Terminal Aerodrome Forecast

115
FTUS44 KOHX 190900 AAB
TAFBNA
TAF AMD
KBNA 190956Z 1910/2006 16005KT 6SM RA BR BKN025 OVC060
      TEMPO 1911/1915 1SM +RA BR BKN007 OVC015
     FM191800 22010KT P6SM VCSH OVC025
     FM192100 22010G18KT P6SM VCTS BKN050CB=

Latest METAR

216
SAUS70 KWBC 191400 RRA
MTRBNA
METAR KBNA 191353Z 13007KT 4SM R02L/6000VP6000FT RA BR BKN008 OVC018
19/18 A2963 RMK AO2 RAB43 SLP030 P0002 T01890183


USA.gov is the U.S. government's official web portal to all federal, state and local government web resources and services.